Terminal Aerodrome Forecast
Issued by NWS Louisville, KY

Home | Current Version | Previous Version | Text Only | Print | Product List | Glossary On
Versions: 1 2 3 4 5 6 7 8 9 10 11 12 13 14 15 16
000
FTUS43 KLMK 180523
TAFBWG
TAF
KBWG 180523Z 1806/1906 00000KT P6SM SCT025
     FM180900 00000KT 4SM BR FEW250
     FM181300 06005KT P6SM SCT250
     FM181600 14008KT P6SM BKN250
     FM190300 18009KT P6SM VCSH BKN040=

USA.gov is the U.S. government's official web portal to all federal, state and local government web resources and services.